Terminal Aerodrome Forecast
Issued by NWS Cleveland, OH

Home | Current Version | Previous Version | Graphics & Text | Print | Product List | Glossary Off
Versions: 1 2 3 4 5 6 7 8 9 10 11 12 13 14 15 16 17 18

000
FTUS41 KCLE 171700
TAFTOL
TAF
KTOL 171734Z 1718/1818 27007KT P6SM SCT045
     FM172300 VRB03KT P6SM SKC
     FM181000 01003KT P6SM SCT080
     FM181600 03007KT P6SM SCT040=

USA.gov is the U.S. government's official web portal to all federal, state and local government web resources and services.